sensor_id;sensor_type;location;lat;lon;timestamp;temperature;humidity
78708;SHT31;68037;51.978;5.650;2023-06-14T00:01:15;25.3;30.1
78708;SHT31;68037;51.978;5.650;2023-06-14T00:03:48;25.2;30.0
78708;SHT31;68037;51.978;5.650;2023-06-14T00:06:17;25.2;30.2
78708;SHT31;68037;51.978;5.650;2023-06-14T00:08:47;25.2;30.3
78708;SHT31;68037;51.978;5.650;2023-06-14T00:11:18;25.1;30.3
78708;SHT31;68037;51.978;5.650;2023-06-14T00:13:48;25.1;30.3
78708;SHT31;68037;51.978;5.650;2023-06-14T00:16:17;25.1;30.3
78708;SHT31;68037;51.978;5.650;2023-06-14T00:18:48;25.0;30.3
78708;SHT31;68037;51.978;5.650;2023-06-14T00:21:19;25.0;30.7
78708;SHT31;68037;51.978;5.650;2023-06-14T00:23:51;25.0;30.5
78708;SHT31;68037;51.978;5.650;2023-06-14T00:26:22;25.0;30.6
78708;SHT31;68037;51.978;5.650;2023-06-14T00:28:54;25.0;30.5
78708;SHT31;68037;51.978;5.650;2023-06-14T00:31:24;24.9;30.6
78708;SHT31;68037;51.978;5.650;2023-06-14T00:33:53;24.9;30.8
78708;SHT31;68037;51.978;5.650;2023-06-14T00:36:23;24.8;31.0
78708;SHT31;68037;51.978;5.650;2023-06-14T00:38:53;24.7;31.0
78708;SHT31;68037;51.978;5.650;2023-06-14T00:41:22;24.7;31.0
78708;SHT31;68037;51.978;5.650;2023-06-14T00:43:52;24.6;31.2
78708;SHT31;68037;51.978;5.650;2023-06-14T00:46:25;24.6;31.3
78708;SHT31;68037;51.978;5.650;2023-06-14T00:48:56;24.6;31.5
78708;SHT31;68037;51.978;5.650;2023-06-14T00:51:28;24.5;31.5
78708;SHT31;68037;51.978;5.650;2023-06-14T00:53:58;24.5;31.6
78708;SHT31;68037;51.978;5.650;2023-06-14T00:56:28;24.4;31.7
78708;SHT31;68037;51.978;5.650;2023-06-14T00:58:58;24.4;32.0
78708;SHT31;68037;51.978;5.650;2023-06-14T01:01:28;24.4;32.1
78708;SHT31;68037;51.978;5.650;2023-06-14T01:04:00;24.3;32.2
78708;SHT31;68037;51.978;5.650;2023-06-14T01:06:45;24.3;32.3
78708;SHT31;68037;51.978;5.650;2023-06-14T01:09:18;24.3;32.2
78708;SHT31;68037;51.978;5.650;2023-06-14T01:12:04;24.3;32.2
78708;SHT31;68037;51.978;5.650;2023-06-14T01:14:37;24.3;32.1
78708;SHT31;68037;51.978;5.650;2023-06-14T01:17:08;24.3;32.2
78708;SHT31;68037;51.978;5.650;2023-06-14T01:19:44;24.3;32.0
78708;SHT31;68037;51.978;5.650;2023-06-14T01:22:14;24.3;32.1
78708;SHT31;68037;51.978;5.650;2023-06-14T01:24:44;24.3;32.1
78708;SHT31;68037;51.978;5.650;2023-06-14T01:27:14;24.3;32.2
78708;SHT31;68037;51.978;5.650;2023-06-14T01:29:48;24.2;32.3
78708;SHT31;68037;51.978;5.650;2023-06-14T01:32:19;24.2;32.3
78708;SHT31;68037;51.978;5.650;2023-06-14T01:34:50;24.1;32.4
78708;SHT31;68037;51.978;5.650;2023-06-14T01:37:21;24.1;32.5
78708;SHT31;68037;51.978;5.650;2023-06-14T01:39:52;24.0;32.6
78708;SHT31;68037;51.978;5.650;2023-06-14T01:42:25;24.0;32.9
78708;SHT31;68037;51.978;5.650;2023-06-14T01:44:56;23.9;32.8
78708;SHT31;68037;51.978;5.650;2023-06-14T01:47:27;23.9;32.7
78708;SHT31;68037;51.978;5.650;2023-06-14T01:49:56;23.8;32.7
78708;SHT31;68037;51.978;5.650;2023-06-14T01:52:26;23.8;33.0
78708;SHT31;68037;51.978;5.650;2023-06-14T01:54:56;23.7;33.1
78708;SHT31;68037;51.978;5.650;2023-06-14T01:57:26;23.7;33.2
78708;SHT31;68037;51.978;5.650;2023-06-14T01:59:57;23.6;33.1
78708;SHT31;68037;51.978;5.650;2023-06-14T02:02:28;23.6;33.5
78708;SHT31;68037;51.978;5.650;2023-06-14T02:04:58;23.6;33.5
78708;SHT31;68037;51.978;5.650;2023-06-14T02:07:29;23.6;33.4
78708;SHT31;68037;51.978;5.650;2023-06-14T02:10:00;23.6;33.5
78708;SHT31;68037;51.978;5.650;2023-06-14T02:12:30;23.5;33.5
78708;SHT31;68037;51.978;5.650;2023-06-14T02:15:00;23.5;33.4
78708;SHT31;68037;51.978;5.650;2023-06-14T02:17:33;23.5;33.7
78708;SHT31;68037;51.978;5.650;2023-06-14T02:20:06;23.4;33.7
78708;SHT31;68037;51.978;5.650;2023-06-14T02:22:38;23.4;33.8
78708;SHT31;68037;51.978;5.650;2023-06-14T02:25:09;23.4;33.7
78708;SHT31;68037;51.978;5.650;2023-06-14T02:27:40;23.4;33.8
78708;SHT31;68037;51.978;5.650;2023-06-14T02:30:11;23.4;34.1
78708;SHT31;68037;51.978;5.650;2023-06-14T02:32:43;23.3;34.1
78708;SHT31;68037;51.978;5.650;2023-06-14T02:35:13;23.3;33.9
78708;SHT31;68037;51.978;5.650;2023-06-14T02:37:42;23.3;34.0
78708;SHT31;68037;51.978;5.650;2023-06-14T02:40:12;23.3;33.9
78708;SHT31;68037;51.978;5.650;2023-06-14T02:42:42;23.3;34.0
78708;SHT31;68037;51.978;5.650;2023-06-14T02:45:20;23.4;34.3
78708;SHT31;68037;51.978;5.650;2023-06-14T02:47:53;23.4;34.2
78708;SHT31;68037;51.978;5.650;2023-06-14T02:50:30;23.5;33.9
78708;SHT31;68037;51.978;5.650;2023-06-14T02:53:06;23.5;33.9
78708;SHT31;68037;51.978;5.650;2023-06-14T02:55:35;23.6;33.9
78708;SHT31;68037;51.978;5.650;2023-06-14T02:58:20;23.6;33.7
78708;SHT31;68037;51.978;5.650;2023-06-14T03:00:54;23.7;33.8
78708;SHT31;68037;51.978;5.650;2023-06-14T03:03:43;23.7;33.5
78708;SHT31;68037;51.978;5.650;2023-06-14T03:06:13;23.7;33.5
78708;SHT31;68037;51.978;5.650;2023-06-14T03:08:48;23.7;33.5
78708;SHT31;68037;51.978;5.650;2023-06-14T03:11:20;23.8;33.5
78708;SHT31;68037;51.978;5.650;2023-06-14T03:13:53;23.8;33.4
78708;SHT31;68037;51.978;5.650;2023-06-14T03:16:24;23.8;33.3
78708;SHT31;68037;51.978;5.650;2023-06-14T03:18:57;23.7;33.3
78708;SHT31;68037;51.978;5.650;2023-06-14T03:21:27;23.7;33.5
78708;SHT31;68037;51.978;5.650;2023-06-14T03:23:59;23.6;33.6
78708;SHT31;68037;51.978;5.650;2023-06-14T03:26:31;23.6;33.6
78708;SHT31;68037;51.978;5.650;2023-06-14T03:29:03;23.5;33.9
78708;SHT31;68037;51.978;5.650;2023-06-14T03:31:34;23.4;34.1
78708;SHT31;68037;51.978;5.650;2023-06-14T03:34:05;23.2;34.2
78708;SHT31;68037;51.978;5.650;2023-06-14T03:36:34;23.1;34.7
78708;SHT31;68037;51.978;5.650;2023-06-14T03:39:04;23.0;34.9
78708;SHT31;68037;51.978;5.650;2023-06-14T03:41:35;22.9;34.9
78708;SHT31;68037;51.978;5.650;2023-06-14T03:44:04;22.8;35.1
78708;SHT31;68037;51.978;5.650;2023-06-14T03:46:34;22.7;35.3
78708;SHT31;68037;51.978;5.650;2023-06-14T03:49:04;22.7;35.4
78708;SHT31;68037;51.978;5.650;2023-06-14T03:51:33;22.6;35.5
78708;SHT31;68037;51.978;5.650;2023-06-14T03:54:03;22.5;35.7
78708;SHT31;68037;51.978;5.650;2023-06-14T03:56:33;22.5;36.0
78708;SHT31;68037;51.978;5.650;2023-06-14T03:59:03;22.4;36.3
78708;SHT31;68037;51.978;5.650;2023-06-14T04:01:35;22.4;36.4
78708;SHT31;68037;51.978;5.650;2023-06-14T04:04:05;22.3;36.6
78708;SHT31;68037;51.978;5.650;2023-06-14T04:06:38;22.3;36.5
78708;SHT31;68037;51.978;5.650;2023-06-14T04:09:08;22.2;37.0
78708;SHT31;68037;51.978;5.650;2023-06-14T04:11:40;22.2;37.0
78708;SHT31;68037;51.978;5.650;2023-06-14T04:14:11;22.1;37.0
78708;SHT31;68037;51.978;5.650;2023-06-14T04:16:40;22.1;37.3
78708;SHT31;68037;51.978;5.650;2023-06-14T04:19:11;22.0;37.2
78708;SHT31;68037;51.978;5.650;2023-06-14T04:21:42;22.0;37.5
78708;SHT31;68037;51.978;5.650;2023-06-14T04:24:12;21.9;37.6
78708;SHT31;68037;51.978;5.650;2023-06-14T04:26:44;21.9;37.7
78708;SHT31;68037;51.978;5.650;2023-06-14T04:29:15;21.9;37.9
78708;SHT31;68037;51.978;5.650;2023-06-14T04:31:47;21.8;38.0
78708;SHT31;68037;51.978;5.650;2023-06-14T04:34:16;21.8;38.0
78708;SHT31;68037;51.978;5.650;2023-06-14T04:36:46;21.8;38.5
78708;SHT31;68037;51.978;5.650;2023-06-14T04:39:19;21.8;38.2
78708;SHT31;68037;51.978;5.650;2023-06-14T04:41:50;21.9;38.0
78708;SHT31;68037;51.978;5.650;2023-06-14T04:44:25;21.9;38.1
78708;SHT31;68037;51.978;5.650;2023-06-14T04:46:58;21.9;38.2
78708;SHT31;68037;51.978;5.650;2023-06-14T04:49:28;21.9;38.3
78708;SHT31;68037;51.978;5.650;2023-06-14T04:52:01;21.8;38.3
78708;SHT31;68037;51.978;5.650;2023-06-14T04:54:30;21.8;38.1
78708;SHT31;68037;51.978;5.650;2023-06-14T04:57:01;21.8;38.4
78708;SHT31;68037;51.978;5.650;2023-06-14T04:59:30;21.8;38.5
78708;SHT31;68037;51.978;5.650;2023-06-14T05:02:01;21.8;38.4
78708;SHT31;68037;51.978;5.650;2023-06-14T05:04:32;21.8;38.2
78708;SHT31;68037;51.978;5.650;2023-06-14T05:07:08;21.8;38.2
78708;SHT31;68037;51.978;5.650;2023-06-14T05:09:38;21.8;38.2
78708;SHT31;68037;51.978;5.650;2023-06-14T05:12:11;21.8;38.3
78708;SHT31;68037;51.978;5.650;2023-06-14T05:14:46;21.8;38.4
78708;SHT31;68037;51.978;5.650;2023-06-14T05:17:19;21.8;38.7
78708;SHT31;68037;51.978;5.650;2023-06-14T05:19:50;21.8;38.6
78708;SHT31;68037;51.978;5.650;2023-06-14T05:22:19;21.8;38.6
78708;SHT31;68037;51.978;5.650;2023-06-14T05:24:49;21.9;38.6
78708;SHT31;68037;51.978;5.650;2023-06-14T05:27:22;21.9;38.7
78708;SHT31;68037;51.978;5.650;2023-06-14T05:30:16;22.0;38.6
78708;SHT31;68037;51.978;5.650;2023-06-14T05:32:47;22.1;38.3
78708;SHT31;68037;51.978;5.650;2023-06-14T05:35:17;22.1;38.2
78708;SHT31;68037;51.978;5.650;2023-06-14T05:37:49;22.2;38.6
78708;SHT31;68037;51.978;5.650;2023-06-14T05:40:21;22.2;38.4
78708;SHT31;68037;51.978;5.650;2023-06-14T05:42:51;22.3;38.1
78708;SHT31;68037;51.978;5.650;2023-06-14T05:45:20;22.3;38.1
78708;SHT31;68037;51.978;5.650;2023-06-14T05:47:52;22.4;37.9
78708;SHT31;68037;51.978;5.650;2023-06-14T05:50:21;22.4;38.3
78708;SHT31;68037;51.978;5.650;2023-06-14T05:52:53;22.4;37.9
78708;SHT31;68037;51.978;5.650;2023-06-14T05:55:23;22.5;37.8
78708;SHT31;68037;51.978;5.650;2023-06-14T05:57:54;22.5;37.9
78708;SHT31;68037;51.978;5.650;2023-06-14T06:00:24;22.5;37.9
78708;SHT31;68037;51.978;5.650;2023-06-14T06:02:54;22.6;37.8
78708;SHT31;68037;51.978;5.650;2023-06-14T06:05:24;22.6;37.9
78708;SHT31;68037;51.978;5.650;2023-06-14T06:07:54;22.6;37.9
78708;SHT31;68037;51.978;5.650;2023-06-14T06:10:24;22.6;37.8
78708;SHT31;68037;51.978;5.650;2023-06-14T06:12:57;22.6;37.4
78708;SHT31;68037;51.978;5.650;2023-06-14T06:15:27;22.6;37.3
78708;SHT31;68037;51.978;5.650;2023-06-14T06:17:56;22.7;37.2
78708;SHT31;68037;51.978;5.650;2023-06-14T06:20:26;22.8;37.2
78708;SHT31;68037;51.978;5.650;2023-06-14T06:22:59;22.9;36.7
78708;SHT31;68037;51.978;5.650;2023-06-14T06:25:29;22.9;36.6
78708;SHT31;68037;51.978;5.650;2023-06-14T06:27:59;22.9;36.7
78708;SHT31;68037;51.978;5.650;2023-06-14T06:30:28;23.0;36.4
78708;SHT31;68037;51.978;5.650;2023-06-14T06:32:58;23.0;36.1
78708;SHT31;68037;51.978;5.650;2023-06-14T06:35:34;23.0;36.3
78708;SHT31;68037;51.978;5.650;2023-06-14T06:38:04;23.0;36.5
78708;SHT31;68037;51.978;5.650;2023-06-14T06:40:36;23.1;36.8
78708;SHT31;68037;51.978;5.650;2023-06-14T06:43:06;23.1;37.0
78708;SHT31;68037;51.978;5.650;2023-06-14T06:45:36;23.1;37.3
78708;SHT31;68037;51.978;5.650;2023-06-14T06:48:06;23.1;36.7
78708;SHT31;68037;51.978;5.650;2023-06-14T06:50:37;23.2;36.7
78708;SHT31;68037;51.978;5.650;2023-06-14T06:53:09;23.2;36.7
78708;SHT31;68037;51.978;5.650;2023-06-14T06:55:39;23.3;36.8
78708;SHT31;68037;51.978;5.650;2023-06-14T06:58:08;23.4;36.5
78708;SHT31;68037;51.978;5.650;2023-06-14T07:00:38;23.4;36.2
78708;SHT31;68037;51.978;5.650;2023-06-14T07:03:08;23.5;36.8
78708;SHT31;68037;51.978;5.650;2023-06-14T07:05:37;23.5;36.5
78708;SHT31;68037;51.978;5.650;2023-06-14T07:08:07;23.7;36.5
78708;SHT31;68037;51.978;5.650;2023-06-14T07:10:40;23.9;35.8
78708;SHT31;68037;51.978;5.650;2023-06-14T07:13:10;24.0;35.3
78708;SHT31;68037;51.978;5.650;2023-06-14T07:15:43;24.0;35.0
78708;SHT31;68037;51.978;5.650;2023-06-14T07:18:12;24.1;35.2
78708;SHT31;68037;51.978;5.650;2023-06-14T07:20:42;24.1;34.8
78708;SHT31;68037;51.978;5.650;2023-06-14T07:23:12;24.2;34.8
78708;SHT31;68037;51.978;5.650;2023-06-14T07:25:42;24.2;34.8
78708;SHT31;68037;51.978;5.650;2023-06-14T07:28:13;24.2;34.7
78708;SHT31;68037;51.978;5.650;2023-06-14T07:30:43;24.3;34.9
78708;SHT31;68037;51.978;5.650;2023-06-14T07:33:15;24.3;34.9
78708;SHT31;68037;51.978;5.650;2023-06-14T07:35:44;24.3;34.5
78708;SHT31;68037;51.978;5.650;2023-06-14T07:38:15;24.4;34.2
78708;SHT31;68037;51.978;5.650;2023-06-14T07:40:44;24.4;34.2
78708;SHT31;68037;51.978;5.650;2023-06-14T07:43:14;24.4;34.1
78708;SHT31;68037;51.978;5.650;2023-06-14T07:45:46;24.5;34.2
78708;SHT31;68037;51.978;5.650;2023-06-14T07:48:19;24.5;34.0
78708;SHT31;68037;51.978;5.650;2023-06-14T07:50:50;24.5;33.8
78708;SHT31;68037;51.978;5.650;2023-06-14T07:53:19;24.6;33.6
78708;SHT31;68037;51.978;5.650;2023-06-14T07:55:51;24.7;34.0
78708;SHT31;68037;51.978;5.650;2023-06-14T07:58:28;24.8;33.4
78708;SHT31;68037;51.978;5.650;2023-06-14T08:00:58;25.0;32.8
78708;SHT31;68037;51.978;5.650;2023-06-14T08:03:28;25.1;32.8
78708;SHT31;68037;51.978;5.650;2023-06-14T08:05:59;25.1;32.8
78708;SHT31;68037;51.978;5.650;2023-06-14T08:08:30;25.2;33.1
78708;SHT31;68037;51.978;5.650;2023-06-14T08:11:00;25.3;32.9
78708;SHT31;68037;51.978;5.650;2023-06-14T08:13:29;25.3;33.1
78708;SHT31;68037;51.978;5.650;2023-06-14T08:15:59;25.4;32.7
78708;SHT31;68037;51.978;5.650;2023-06-14T08:18:29;25.5;32.8
78708;SHT31;68037;51.978;5.650;2023-06-14T08:20:59;25.5;32.9
78708;SHT31;68037;51.978;5.650;2023-06-14T08:23:30;25.6;33.3
78708;SHT31;68037;51.978;5.650;2023-06-14T08:26:04;25.7;32.8
78708;SHT31;68037;51.978;5.650;2023-06-14T08:28:35;25.8;32.0
78708;SHT31;68037;51.978;5.650;2023-06-14T08:31:05;26.0;31.2
78708;SHT31;68037;51.978;5.650;2023-06-14T08:33:34;26.1;30.2
78708;SHT31;68037;51.978;5.650;2023-06-14T08:36:04;26.2;29.6
78708;SHT31;68037;51.978;5.650;2023-06-14T08:38:34;26.3;29.8
78708;SHT31;68037;51.978;5.650;2023-06-14T08:41:05;26.4;30.3
78708;SHT31;68037;51.978;5.650;2023-06-14T08:43:35;26.4;30.6
78708;SHT31;68037;51.978;5.650;2023-06-14T08:46:07;26.5;31.1
78708;SHT31;68037;51.978;5.650;2023-06-14T08:48:44;26.6;30.0
78708;SHT31;68037;51.978;5.650;2023-06-14T08:51:19;26.7;29.4
78708;SHT31;68037;51.978;5.650;2023-06-14T08:53:53;26.8;29.1
78708;SHT31;68037;51.978;5.650;2023-06-14T08:56:26;26.8;29.1
78708;SHT31;68037;51.978;5.650;2023-06-14T08:58:58;26.9;28.6
78708;SHT31;68037;51.978;5.650;2023-06-14T09:01:32;26.9;28.5
78708;SHT31;68037;51.978;5.650;2023-06-14T09:04:03;27.0;28.1
78708;SHT31;68037;51.978;5.650;2023-06-14T09:06:37;27.0;28.4
78708;SHT31;68037;51.978;5.650;2023-06-14T09:09:27;27.2;28.7
78708;SHT31;68037;51.978;5.650;2023-06-14T09:12:01;27.3;28.2
78708;SHT31;68037;51.978;5.650;2023-06-14T09:14:33;27.4;28.1
78708;SHT31;68037;51.978;5.650;2023-06-14T09:17:08;27.5;28.1
78708;SHT31;68037;51.978;5.650;2023-06-14T09:19:40;27.6;27.5
78708;SHT31;68037;51.978;5.650;2023-06-14T09:22:11;27.7;27.8
78708;SHT31;68037;51.978;5.650;2023-06-14T09:24:41;27.7;26.9
78708;SHT31;68037;51.978;5.650;2023-06-14T09:27:14;27.7;27.3
78708;SHT31;68037;51.978;5.650;2023-06-14T09:29:44;27.7;26.0
78708;SHT31;68037;51.978;5.650;2023-06-14T09:32:13;27.7;26.7
78708;SHT31;68037;51.978;5.650;2023-06-14T09:34:45;27.7;26.8
78708;SHT31;68037;51.978;5.650;2023-06-14T09:37:31;27.8;27.3
78708;SHT31;68037;51.978;5.650;2023-06-14T09:40:03;27.8;27.4
78708;SHT31;68037;51.978;5.650;2023-06-14T09:42:34;27.9;27.3
78708;SHT31;68037;51.978;5.650;2023-06-14T09:45:06;27.9;26.1
78708;SHT31;68037;51.978;5.650;2023-06-14T09:47:35;27.9;26.3
78708;SHT31;68037;51.978;5.650;2023-06-14T09:50:05;27.9;26.4
78708;SHT31;68037;51.978;5.650;2023-06-14T09:52:35;27.9;26.7
78708;SHT31;68037;51.978;5.650;2023-06-14T09:55:13;28.0;26.8
78708;SHT31;68037;51.978;5.650;2023-06-14T09:57:45;28.0;25.6
78708;SHT31;68037;51.978;5.650;2023-06-14T10:00:18;28.0;26.4
78708;SHT31;68037;51.978;5.650;2023-06-14T10:02:57;28.0;26.1
78708;SHT31;68037;51.978;5.650;2023-06-14T10:05:31;28.0;26.7
78708;SHT31;68037;51.978;5.650;2023-06-14T10:08:04;28.1;27.1
78708;SHT31;68037;51.978;5.650;2023-06-14T10:10:39;28.1;27.3
78708;SHT31;68037;51.978;5.650;2023-06-14T10:13:09;28.1;26.7
78708;SHT31;68037;51.978;5.650;2023-06-14T10:15:46;28.2;27.0
78708;SHT31;68037;51.978;5.650;2023-06-14T10:18:24;28.2;26.9
78708;SHT31;68037;51.978;5.650;2023-06-14T10:21:02;28.3;27.0
78708;SHT31;68037;51.978;5.650;2023-06-14T10:23:40;28.3;26.8
78708;SHT31;68037;51.978;5.650;2023-06-14T10:26:28;28.4;27.1
78708;SHT31;68037;51.978;5.650;2023-06-14T10:29:05;28.5;27.2
78708;SHT31;68037;51.978;5.650;2023-06-14T10:31:43;28.6;26.7
78708;SHT31;68037;51.978;5.650;2023-06-14T10:34:24;28.6;26.3
78708;SHT31;68037;51.978;5.650;2023-06-14T10:37:05;28.7;26.2
78708;SHT31;68037;51.978;5.650;2023-06-14T10:39:39;28.8;26.5
78708;SHT31;68037;51.978;5.650;2023-06-14T10:42:10;28.8;27.0
78708;SHT31;68037;51.978;5.650;2023-06-14T10:44:44;28.8;26.8
78708;SHT31;68037;51.978;5.650;2023-06-14T10:47:33;28.9;26.5
78708;SHT31;68037;51.978;5.650;2023-06-14T10:50:07;28.9;26.8
78708;SHT31;68037;51.978;5.650;2023-06-14T10:52:41;28.9;25.9
78708;SHT31;68037;51.978;5.650;2023-06-14T10:55:14;29.0;26.0
78708;SHT31;68037;51.978;5.650;2023-06-14T10:57:47;29.0;26.0
78708;SHT31;68037;51.978;5.650;2023-06-14T11:00:20;29.0;26.2
78708;SHT31;68037;51.978;5.650;2023-06-14T11:04:47;29.0;26.1
78708;SHT31;68037;51.978;5.650;2023-06-14T11:07:30;29.1;26.5
78708;SHT31;68037;51.978;5.650;2023-06-14T11:10:11;29.1;25.5
78708;SHT31;68037;51.978;5.650;2023-06-14T11:12:47;29.2;24.6
78708;SHT31;68037;51.978;5.650;2023-06-14T11:15:18;29.2;25.0
78708;SHT31;68037;51.978;5.650;2023-06-14T11:17:55;29.2;25.0
78708;SHT31;68037;51.978;5.650;2023-06-14T11:20:29;29.3;24.8
78708;SHT31;68037;51.978;5.650;2023-06-14T11:23:00;29.4;24.3
78708;SHT31;68037;51.978;5.650;2023-06-14T11:25:30;29.4;24.6
78708;SHT31;68037;51.978;5.650;2023-06-14T11:27:59;29.4;25.3
78708;SHT31;68037;51.978;5.650;2023-06-14T11:30:29;29.5;24.7
78708;SHT31;68037;51.978;5.650;2023-06-14T11:32:58;29.5;24.5
78708;SHT31;68037;51.978;5.650;2023-06-14T11:35:29;29.5;23.8
78708;SHT31;68037;51.978;5.650;2023-06-14T11:38:03;29.5;24.4
78708;SHT31;68037;51.978;5.650;2023-06-14T11:40:33;29.5;24.4
78708;SHT31;68037;51.978;5.650;2023-06-14T11:43:04;29.5;23.9
78708;SHT31;68037;51.978;5.650;2023-06-14T11:45:34;29.5;24.4
78708;SHT31;68037;51.978;5.650;2023-06-14T11:48:06;29.5;24.2
78708;SHT31;68037;51.978;5.650;2023-06-14T11:50:37;29.5;24.6
78708;SHT31;68037;51.978;5.650;2023-06-14T11:53:09;29.6;24.7
78708;SHT31;68037;51.978;5.650;2023-06-14T11:55:40;29.6;24.6
78708;SHT31;68037;51.978;5.650;2023-06-14T11:58:12;29.7;24.5
78708;SHT31;68037;51.978;5.650;2023-06-14T12:00:43;29.8;24.4
78708;SHT31;68037;51.978;5.650;2023-06-14T12:03:13;29.9;24.8
78708;SHT31;68037;51.978;5.650;2023-06-14T12:05:43;30.0;24.8
78708;SHT31;68037;51.978;5.650;2023-06-14T12:08:15;30.1;24.3
78708;SHT31;68037;51.978;5.650;2023-06-14T12:10:53;30.2;23.7
78708;SHT31;68037;51.978;5.650;2023-06-14T12:13:25;30.3;24.0
78708;SHT31;68037;51.978;5.650;2023-06-14T12:15:57;30.4;23.6
78708;SHT31;68037;51.978;5.650;2023-06-14T12:18:36;30.4;23.8
78708;SHT31;68037;51.978;5.650;2023-06-14T12:21:07;30.4;24.0
78708;SHT31;68037;51.978;5.650;2023-06-14T12:23:42;30.5;24.3
78708;SHT31;68037;51.978;5.650;2023-06-14T12:26:14;30.5;24.7
78708;SHT31;68037;51.978;5.650;2023-06-14T12:28:45;30.5;24.6
78708;SHT31;68037;51.978;5.650;2023-06-14T12:31:16;30.5;24.6
78708;SHT31;68037;51.978;5.650;2023-06-14T12:33:46;30.5;24.9
78708;SHT31;68037;51.978;5.650;2023-06-14T12:36:19;30.6;24.6
78708;SHT31;68037;51.978;5.650;2023-06-14T12:38:49;30.6;25.0
78708;SHT31;68037;51.978;5.650;2023-06-14T12:41:21;30.6;24.7
78708;SHT31;68037;51.978;5.650;2023-06-14T12:43:53;30.6;24.5
78708;SHT31;68037;51.978;5.650;2023-06-14T12:46:25;30.6;24.0
78708;SHT31;68037;51.978;5.650;2023-06-14T12:48:55;30.7;24.2
78708;SHT31;68037;51.978;5.650;2023-06-14T12:51:26;30.7;23.8
78708;SHT31;68037;51.978;5.650;2023-06-14T12:53:56;30.7;23.6
78708;SHT31;68037;51.978;5.650;2023-06-14T12:56:26;30.8;23.7
78708;SHT31;68037;51.978;5.650;2023-06-14T12:59:02;30.8;23.7
78708;SHT31;68037;51.978;5.650;2023-06-14T13:01:38;30.9;23.4
78708;SHT31;68037;51.978;5.650;2023-06-14T13:04:16;30.9;22.1
78708;SHT31;68037;51.978;5.650;2023-06-14T13:06:47;31.0;22.8
78708;SHT31;68037;51.978;5.650;2023-06-14T13:09:21;31.0;23.2
78708;SHT31;68037;51.978;5.650;2023-06-14T13:11:55;31.0;23.3
78708;SHT31;68037;51.978;5.650;2023-06-14T13:14:27;31.0;23.4
78708;SHT31;68037;51.978;5.650;2023-06-14T13:17:07;31.1;23.0
78708;SHT31;68037;51.978;5.650;2023-06-14T13:19:38;31.1;23.5
78708;SHT31;68037;51.978;5.650;2023-06-14T13:22:15;31.2;23.5
78708;SHT31;68037;51.978;5.650;2023-06-14T13:24:49;31.3;23.6
78708;SHT31;68037;51.978;5.650;2023-06-14T13:27:21;31.3;23.6
78708;SHT31;68037;51.978;5.650;2023-06-14T13:29:51;31.3;24.1
78708;SHT31;68037;51.978;5.650;2023-06-14T13:32:36;31.3;23.7
78708;SHT31;68037;51.978;5.650;2023-06-14T13:35:09;31.3;24.2
78708;SHT31;68037;51.978;5.650;2023-06-14T13:37:41;31.3;23.9
78708;SHT31;68037;51.978;5.650;2023-06-14T13:40:11;31.3;23.7
78708;SHT31;68037;51.978;5.650;2023-06-14T13:42:42;31.3;23.4
78708;SHT31;68037;51.978;5.650;2023-06-14T13:45:12;31.2;23.3
78708;SHT31;68037;51.978;5.650;2023-06-14T13:47:42;31.2;23.4
78708;SHT31;68037;51.978;5.650;2023-06-14T13:50:32;31.2;23.8
78708;SHT31;68037;51.978;5.650;2023-06-14T13:53:09;31.3;24.3
78708;SHT31;68037;51.978;5.650;2023-06-14T13:55:39;31.3;23.0
78708;SHT31;68037;51.978;5.650;2023-06-14T13:58:08;31.3;23.4
78708;SHT31;68037;51.978;5.650;2023-06-14T14:00:38;31.3;22.5
78708;SHT31;68037;51.978;5.650;2023-06-14T14:03:08;31.3;22.7
78708;SHT31;68037;51.978;5.650;2023-06-14T14:05:40;31.4;23.6
78708;SHT31;68037;51.978;5.650;2023-06-14T14:08:10;31.5;22.6
78708;SHT31;68037;51.978;5.650;2023-06-14T14:10:40;31.5;22.4
78708;SHT31;68037;51.978;5.650;2023-06-14T14:13:09;31.6;22.6
78708;SHT31;68037;51.978;5.650;2023-06-14T14:15:41;31.8;22.9
78708;SHT31;68037;51.978;5.650;2023-06-14T14:18:13;31.9;22.9
78708;SHT31;68037;51.978;5.650;2023-06-14T14:20:45;32.1;22.6
78708;SHT31;68037;51.978;5.650;2023-06-14T14:23:15;32.3;22.1
78708;SHT31;68037;51.978;5.650;2023-06-14T14:25:46;32.6;21.3
78708;SHT31;68037;51.978;5.650;2023-06-14T14:28:16;32.9;21.4
78708;SHT31;68037;51.978;5.650;2023-06-14T14:30:47;33.1;21.1
78708;SHT31;68037;51.978;5.650;2023-06-14T14:33:17;33.3;20.9
78708;SHT31;68037;51.978;5.650;2023-06-14T14:35:48;33.5;21.2
78708;SHT31;68037;51.978;5.650;2023-06-14T14:38:19;33.7;21.3
78708;SHT31;68037;51.978;5.650;2023-06-14T14:40:49;34.0;21.3
78708;SHT31;68037;51.978;5.650;2023-06-14T14:43:19;34.3;20.5
78708;SHT31;68037;51.978;5.650;2023-06-14T14:45:48;34.5;20.1
78708;SHT31;68037;51.978;5.650;2023-06-14T14:48:18;34.6;20.1
78708;SHT31;68037;51.978;5.650;2023-06-14T14:50:47;34.8;20.0
78708;SHT31;68037;51.978;5.650;2023-06-14T14:53:17;35.0;20.2
78708;SHT31;68037;51.978;5.650;2023-06-14T14:55:47;35.3;19.8
78708;SHT31;68037;51.978;5.650;2023-06-14T14:58:16;35.6;19.5
78708;SHT31;68037;51.978;5.650;2023-06-14T15:00:47;35.8;19.4
78708;SHT31;68037;51.978;5.650;2023-06-14T15:03:18;36.0;19.3
78708;SHT31;68037;51.978;5.650;2023-06-14T15:05:48;36.2;18.9
78708;SHT31;68037;51.978;5.650;2023-06-14T15:08:18;36.4;19.1
78708;SHT31;68037;51.978;5.650;2023-06-14T15:10:49;36.5;18.8
78708;SHT31;68037;51.978;5.650;2023-06-14T15:13:18;36.6;18.6
78708;SHT31;68037;51.978;5.650;2023-06-14T15:15:52;36.8;18.4
78708;SHT31;68037;51.978;5.650;2023-06-14T15:18:21;37.1;17.5
78708;SHT31;68037;51.978;5.650;2023-06-14T15:20:52;37.3;17.4
78708;SHT31;68037;51.978;5.650;2023-06-14T15:23:22;37.5;17.2
78708;SHT31;68037;51.978;5.650;2023-06-14T15:25:52;37.6;17.0
78708;SHT31;68037;51.978;5.650;2023-06-14T15:28:21;37.8;16.9
78708;SHT31;68037;51.978;5.650;2023-06-14T15:30:55;38.0;17.0
78708;SHT31;68037;51.978;5.650;2023-06-14T15:33:28;38.2;16.9
78708;SHT31;68037;51.978;5.650;2023-06-14T15:36:00;38.4;17.3
78708;SHT31;68037;51.978;5.650;2023-06-14T15:38:30;38.6;17.5
78708;SHT31;68037;51.978;5.650;2023-06-14T15:40:59;38.8;17.1
78708;SHT31;68037;51.978;5.650;2023-06-14T15:43:30;39.0;16.9
78708;SHT31;68037;51.978;5.650;2023-06-14T15:45:59;39.2;16.3
78708;SHT31;68037;51.978;5.650;2023-06-14T15:48:29;39.3;16.3
78708;SHT31;68037;51.978;5.650;2023-06-14T15:50:58;39.5;16.2
78708;SHT31;68037;51.978;5.650;2023-06-14T15:53:28;39.6;16.4
78708;SHT31;68037;51.978;5.650;2023-06-14T15:55:57;39.7;16.2
78708;SHT31;68037;51.978;5.650;2023-06-14T15:58:28;39.9;15.9
78708;SHT31;68037;51.978;5.650;2023-06-14T16:00:58;40.0;16.3
78708;SHT31;68037;51.978;5.650;2023-06-14T16:03:28;40.1;16.3
78708;SHT31;68037;51.978;5.650;2023-06-14T16:06:00;40.2;15.9
78708;SHT31;68037;51.978;5.650;2023-06-14T16:08:31;40.3;16.1
78708;SHT31;68037;51.978;5.650;2023-06-14T16:11:00;40.5;16.2
78708;SHT31;68037;51.978;5.650;2023-06-14T16:13:30;40.7;15.9
78708;SHT31;68037;51.978;5.650;2023-06-14T16:16:02;40.8;15.7
78708;SHT31;68037;51.978;5.650;2023-06-14T16:18:32;40.9;15.9
78708;SHT31;68037;51.978;5.650;2023-06-14T16:21:02;41.1;15.9
78708;SHT31;68037;51.978;5.650;2023-06-14T16:23:33;41.2;15.8
78708;SHT31;68037;51.978;5.650;2023-06-14T16:26:05;41.3;15.6
78708;SHT31;68037;51.978;5.650;2023-06-14T16:28:34;41.4;15.8
78708;SHT31;68037;51.978;5.650;2023-06-14T16:31:04;41.5;15.4
78708;SHT31;68037;51.978;5.650;2023-06-14T16:33:33;41.6;15.4